sensor_id;sensor_type;location;lat;lon;timestamp;P1;durP1;ratioP1;P2;durP2;ratioP2
24453;SDS011;12627;50.860;5.714;2022-11-27T00:01:56;9.47;;;2.90;;
24453;SDS011;12627;50.860;5.714;2022-11-27T00:04:23;13.83;;;3.33;;
24453;SDS011;12627;50.860;5.714;2022-11-27T00:06:50;8.87;;;3.10;;
24453;SDS011;12627;50.860;5.714;2022-11-27T00:09:17;7.80;;;3.53;;
24453;SDS011;12627;50.860;5.714;2022-11-27T00:11:46;4.40;;;2.30;;
24453;SDS011;12627;50.860;5.714;2022-11-27T00:14:14;7.07;;;3.57;;
24453;SDS011;12627;50.860;5.714;2022-11-27T00:16:42;7.47;;;2.93;;
24453;SDS011;12627;50.860;5.714;2022-11-27T00:19:10;10.10;;;3.63;;
24453;SDS011;12627;50.860;5.714;2022-11-27T00:21:37;8.97;;;3.20;;
24453;SDS011;12627;50.860;5.714;2022-11-27T00:24:05;11.17;;;3.60;;
24453;SDS011;12627;50.860;5.714;2022-11-27T00:26:33;7.87;;;2.70;;
24453;SDS011;12627;50.860;5.714;2022-11-27T00:29:02;11.07;;;2.60;;
24453;SDS011;12627;50.860;5.714;2022-11-27T00:31:30;7.33;;;2.50;;
24453;SDS011;12627;50.860;5.714;2022-11-27T00:33:59;9.50;;;2.60;;
24453;SDS011;12627;50.860;5.714;2022-11-27T00:36:28;9.57;;;3.00;;
24453;SDS011;12627;50.860;5.714;2022-11-27T00:38:56;9.37;;;2.40;;
24453;SDS011;12627;50.860;5.714;2022-11-27T00:41:25;6.50;;;3.67;;
24453;SDS011;12627;50.860;5.714;2022-11-27T00:43:54;6.83;;;2.70;;
24453;SDS011;12627;50.860;5.714;2022-11-27T00:46:24;6.63;;;2.17;;
24453;SDS011;12627;50.860;5.714;2022-11-27T00:48:53;7.73;;;2.83;;
24453;SDS011;12627;50.860;5.714;2022-11-27T00:51:21;7.50;;;2.40;;
24453;SDS011;12627;50.860;5.714;2022-11-27T00:53:49;7.67;;;2.47;;
24453;SDS011;12627;50.860;5.714;2022-11-27T00:56:18;4.67;;;2.33;;
24453;SDS011;12627;50.860;5.714;2022-11-27T00:58:46;11.50;;;2.47;;
24453;SDS011;12627;50.860;5.714;2022-11-27T01:01:14;12.67;;;3.13;;
24453;SDS011;12627;50.860;5.714;2022-11-27T01:03:44;10.47;;;3.50;;
24453;SDS011;12627;50.860;5.714;2022-11-27T01:06:12;8.43;;;2.33;;
24453;SDS011;12627;50.860;5.714;2022-11-27T01:08:40;9.07;;;2.73;;
24453;SDS011;12627;50.860;5.714;2022-11-27T01:11:11;5.73;;;2.50;;
24453;SDS011;12627;50.860;5.714;2022-11-27T01:13:40;7.40;;;2.57;;
24453;SDS011;12627;50.860;5.714;2022-11-27T01:16:09;7.30;;;2.40;;
24453;SDS011;12627;50.860;5.714;2022-11-27T01:18:39;7.53;;;2.63;;
24453;SDS011;12627;50.860;5.714;2022-11-27T01:21:10;6.83;;;2.63;;
24453;SDS011;12627;50.860;5.714;2022-11-27T01:23:38;7.53;;;2.70;;
24453;SDS011;12627;50.860;5.714;2022-11-27T01:26:05;7.37;;;2.50;;
24453;SDS011;12627;50.860;5.714;2022-11-27T01:28:34;6.87;;;2.97;;
24453;SDS011;12627;50.860;5.714;2022-11-27T01:31:04;9.60;;;3.07;;
24453;SDS011;12627;50.860;5.714;2022-11-27T01:33:32;9.20;;;4.60;;
24453;SDS011;12627;50.860;5.714;2022-11-27T01:36:00;13.87;;;2.77;;
24453;SDS011;12627;50.860;5.714;2022-11-27T01:38:29;6.03;;;2.37;;
24453;SDS011;12627;50.860;5.714;2022-11-27T01:40:58;7.07;;;3.33;;
24453;SDS011;12627;50.860;5.714;2022-11-27T01:43:37;9.40;;;3.90;;
24453;SDS011;12627;50.860;5.714;2022-11-27T01:46:10;6.77;;;2.40;;
24453;SDS011;12627;50.860;5.714;2022-11-27T01:48:48;4.40;;;2.47;;
24453;SDS011;12627;50.860;5.714;2022-11-27T01:51:17;2.93;;;2.33;;
24453;SDS011;12627;50.860;5.714;2022-11-27T01:53:46;6.90;;;2.73;;
24453;SDS011;12627;50.860;5.714;2022-11-27T01:56:13;6.07;;;2.37;;
24453;SDS011;12627;50.860;5.714;2022-11-27T01:58:41;8.83;;;3.23;;
24453;SDS011;12627;50.860;5.714;2022-11-27T02:01:08;5.77;;;2.40;;
24453;SDS011;12627;50.860;5.714;2022-11-27T02:03:36;2.90;;;1.97;;
24453;SDS011;12627;50.860;5.714;2022-11-27T02:06:03;6.37;;;2.20;;
24453;SDS011;12627;50.860;5.714;2022-11-27T02:08:30;7.10;;;3.10;;
24453;SDS011;12627;50.860;5.714;2022-11-27T02:11:01;4.40;;;2.70;;
24453;SDS011;12627;50.860;5.714;2022-11-27T02:13:31;6.80;;;2.43;;
24453;SDS011;12627;50.860;5.714;2022-11-27T02:16:06;6.03;;;2.43;;
24453;SDS011;12627;50.860;5.714;2022-11-27T02:18:41;6.67;;;3.10;;
24453;SDS011;12627;50.860;5.714;2022-11-27T02:21:14;5.73;;;2.07;;
24453;SDS011;12627;50.860;5.714;2022-11-27T02:23:59;5.83;;;2.33;;
24453;SDS011;12627;50.860;5.714;2022-11-27T02:26:47;9.60;;;2.80;;
24453;SDS011;12627;50.860;5.714;2022-11-27T02:29:45;6.60;;;1.90;;
24453;SDS011;12627;50.860;5.714;2022-11-27T02:32:17;4.27;;;1.97;;
24453;SDS011;12627;50.860;5.714;2022-11-27T02:34:49;3.70;;;2.00;;
24453;SDS011;12627;50.860;5.714;2022-11-27T02:37:23;6.07;;;2.37;;
24453;SDS011;12627;50.860;5.714;2022-11-27T02:39:59;9.83;;;2.43;;
24453;SDS011;12627;50.860;5.714;2022-11-27T02:42:31;4.13;;;1.57;;
24453;SDS011;12627;50.860;5.714;2022-11-27T02:45:03;5.50;;;2.70;;
24453;SDS011;12627;50.860;5.714;2022-11-27T02:47:34;3.33;;;2.30;;
24453;SDS011;12627;50.860;5.714;2022-11-27T02:50:01;5.40;;;2.53;;
24453;SDS011;12627;50.860;5.714;2022-11-27T02:52:30;7.27;;;2.27;;
24453;SDS011;12627;50.860;5.714;2022-11-27T02:54:59;3.57;;;1.80;;
24453;SDS011;12627;50.860;5.714;2022-11-27T02:57:29;5.70;;;2.50;;
24453;SDS011;12627;50.860;5.714;2022-11-27T02:59:58;7.03;;;2.57;;
24453;SDS011;12627;50.860;5.714;2022-11-27T03:02:31;4.47;;;2.53;;
24453;SDS011;12627;50.860;5.714;2022-11-27T03:05:00;4.90;;;1.90;;
24453;SDS011;12627;50.860;5.714;2022-11-27T03:07:31;13.23;;;2.20;;
24453;SDS011;12627;50.860;5.714;2022-11-27T03:10:03;5.43;;;2.33;;
24453;SDS011;12627;50.860;5.714;2022-11-27T03:12:34;5.23;;;1.93;;
24453;SDS011;12627;50.860;5.714;2022-11-27T03:15:02;4.60;;;2.20;;
24453;SDS011;12627;50.860;5.714;2022-11-27T03:17:43;5.07;;;2.27;;
24453;SDS011;12627;50.860;5.714;2022-11-27T03:20:18;6.57;;;2.57;;
24453;SDS011;12627;50.860;5.714;2022-11-27T03:22:48;6.23;;;1.93;;
24453;SDS011;12627;50.860;5.714;2022-11-27T03:25:15;4.80;;;1.97;;
24453;SDS011;12627;50.860;5.714;2022-11-27T03:27:43;3.27;;;2.00;;
24453;SDS011;12627;50.860;5.714;2022-11-27T03:30:14;4.97;;;2.10;;
24453;SDS011;12627;50.860;5.714;2022-11-27T03:32:42;6.83;;;2.00;;
24453;SDS011;12627;50.860;5.714;2022-11-27T03:35:10;7.97;;;2.50;;
24453;SDS011;12627;50.860;5.714;2022-11-27T03:37:40;9.37;;;2.30;;
24453;SDS011;12627;50.860;5.714;2022-11-27T03:40:07;6.43;;;1.87;;
24453;SDS011;12627;50.860;5.714;2022-11-27T03:42:39;4.70;;;2.13;;
24453;SDS011;12627;50.860;5.714;2022-11-27T03:45:16;5.88;;;2.47;;
24453;SDS011;12627;50.860;5.714;2022-11-27T03:47:54;7.00;;;1.93;;
24453;SDS011;12627;50.860;5.714;2022-11-27T03:50:31;2.33;;;1.57;;
24453;SDS011;12627;50.860;5.714;2022-11-27T03:53:07;5.70;;;2.07;;
24453;SDS011;12627;50.860;5.714;2022-11-27T03:55:41;10.13;;;2.40;;
24453;SDS011;12627;50.860;5.714;2022-11-27T03:58:18;4.50;;;2.43;;
24453;SDS011;12627;50.860;5.714;2022-11-27T04:00:52;5.90;;;2.37;;
24453;SDS011;12627;50.860;5.714;2022-11-27T04:03:26;3.70;;;2.13;;
24453;SDS011;12627;50.860;5.714;2022-11-27T04:05:55;5.97;;;2.58;;
24453;SDS011;12627;50.860;5.714;2022-11-27T04:08:22;6.83;;;3.33;;
24453;SDS011;12627;50.860;5.714;2022-11-27T04:10:50;5.30;;;1.90;;
24453;SDS011;12627;50.860;5.714;2022-11-27T04:13:17;4.27;;;2.10;;
24453;SDS011;12627;50.860;5.714;2022-11-27T04:15:44;3.93;;;2.00;;
24453;SDS011;12627;50.860;5.714;2022-11-27T04:18:11;7.23;;;2.50;;
24453;SDS011;12627;50.860;5.714;2022-11-27T04:20:40;7.43;;;2.80;;
24453;SDS011;12627;50.860;5.714;2022-11-27T04:23:07;3.40;;;1.90;;
24453;SDS011;12627;50.860;5.714;2022-11-27T04:25:34;6.00;;;2.80;;
24453;SDS011;12627;50.860;5.714;2022-11-27T04:28:02;7.40;;;2.60;;
24453;SDS011;12627;50.860;5.714;2022-11-27T04:30:29;3.33;;;2.17;;
24453;SDS011;12627;50.860;5.714;2022-11-27T04:32:56;5.30;;;2.17;;
24453;SDS011;12627;50.860;5.714;2022-11-27T04:35:23;8.20;;;2.03;;
24453;SDS011;12627;50.860;5.714;2022-11-27T04:37:51;4.72;;;2.05;;
24453;SDS011;12627;50.860;5.714;2022-11-27T04:40:19;6.15;;;2.15;;
24453;SDS011;12627;50.860;5.714;2022-11-27T04:42:46;5.38;;;2.20;;
24453;SDS011;12627;50.860;5.714;2022-11-27T04:45:13;6.07;;;2.10;;
24453;SDS011;12627;50.860;5.714;2022-11-27T04:47:40;5.40;;;2.03;;
24453;SDS011;12627;50.860;5.714;2022-11-27T04:50:08;7.10;;;2.67;;
24453;SDS011;12627;50.860;5.714;2022-11-27T04:52:35;5.60;;;2.47;;
24453;SDS011;12627;50.860;5.714;2022-11-27T04:55:04;6.47;;;2.60;;
24453;SDS011;12627;50.860;5.714;2022-11-27T04:57:32;7.82;;;2.60;;
24453;SDS011;12627;50.860;5.714;2022-11-27T04:59:59;3.57;;;2.10;;
24453;SDS011;12627;50.860;5.714;2022-11-27T05:02:28;7.43;;;2.55;;
24453;SDS011;12627;50.860;5.714;2022-11-27T05:04:56;5.63;;;2.20;;
24453;SDS011;12627;50.860;5.714;2022-11-27T05:07:23;3.37;;;2.00;;
24453;SDS011;12627;50.860;5.714;2022-11-27T05:09:50;4.28;;;1.92;;
24453;SDS011;12627;50.860;5.714;2022-11-27T05:12:19;5.47;;;2.20;;
24453;SDS011;12627;50.860;5.714;2022-11-27T05:14:46;4.60;;;2.30;;
24453;SDS011;12627;50.860;5.714;2022-11-27T05:17:13;3.03;;;2.05;;
24453;SDS011;12627;50.860;5.714;2022-11-27T05:19:40;4.80;;;2.25;;
24453;SDS011;12627;50.860;5.714;2022-11-27T05:22:07;6.03;;;2.20;;
24453;SDS011;12627;50.860;5.714;2022-11-27T05:24:34;2.50;;;1.67;;
24453;SDS011;12627;50.860;5.714;2022-11-27T05:27:02;5.03;;;2.17;;
24453;SDS011;12627;50.860;5.714;2022-11-27T05:29:30;2.50;;;1.83;;
24453;SDS011;12627;50.860;5.714;2022-11-27T05:31:58;4.25;;;2.05;;
24453;SDS011;12627;50.860;5.714;2022-11-27T05:34:25;6.30;;;2.22;;
24453;SDS011;12627;50.860;5.714;2022-11-27T05:36:52;4.80;;;2.37;;
24453;SDS011;12627;50.860;5.714;2022-11-27T05:39:19;6.43;;;2.78;;
24453;SDS011;12627;50.860;5.714;2022-11-27T05:41:46;5.33;;;3.30;;
24453;SDS011;12627;50.860;5.714;2022-11-27T05:44:14;7.57;;;2.40;;
24453;SDS011;12627;50.860;5.714;2022-11-27T05:46:42;5.57;;;2.53;;
24453;SDS011;12627;50.860;5.714;2022-11-27T05:49:10;5.70;;;2.50;;
24453;SDS011;12627;50.860;5.714;2022-11-27T05:51:38;7.28;;;2.70;;
24453;SDS011;12627;50.860;5.714;2022-11-27T05:54:05;4.45;;;2.50;;
24453;SDS011;12627;50.860;5.714;2022-11-27T05:56:33;9.32;;;2.83;;
24453;SDS011;12627;50.860;5.714;2022-11-27T05:59:00;4.65;;;2.47;;
24453;SDS011;12627;50.860;5.714;2022-11-27T06:01:27;6.75;;;2.50;;
24453;SDS011;12627;50.860;5.714;2022-11-27T06:03:56;5.47;;;2.53;;
24453;SDS011;12627;50.860;5.714;2022-11-27T06:06:23;2.78;;;2.47;;
24453;SDS011;12627;50.860;5.714;2022-11-27T06:08:50;8.00;;;2.77;;
24453;SDS011;12627;50.860;5.714;2022-11-27T06:11:18;6.90;;;3.78;;
24453;SDS011;12627;50.860;5.714;2022-11-27T06:13:49;5.20;;;2.58;;
24453;SDS011;12627;50.860;5.714;2022-11-27T06:16:16;4.63;;;2.33;;
24453;SDS011;12627;50.860;5.714;2022-11-27T06:18:47;6.47;;;3.10;;
24453;SDS011;12627;50.860;5.714;2022-11-27T06:21:16;9.00;;;2.63;;
24453;SDS011;12627;50.860;5.714;2022-11-27T06:23:44;5.57;;;2.55;;
24453;SDS011;12627;50.860;5.714;2022-11-27T06:26:12;6.30;;;3.08;;
24453;SDS011;12627;50.860;5.714;2022-11-27T06:28:41;9.18;;;2.55;;
24453;SDS011;12627;50.860;5.714;2022-11-27T06:31:09;4.40;;;2.55;;
24453;SDS011;12627;50.860;5.714;2022-11-27T06:33:37;5.30;;;3.50;;
24453;SDS011;12627;50.860;5.714;2022-11-27T06:36:05;10.15;;;3.28;;
24453;SDS011;12627;50.860;5.714;2022-11-27T06:38:34;4.43;;;2.50;;
24453;SDS011;12627;50.860;5.714;2022-11-27T06:41:03;4.17;;;2.53;;
24453;SDS011;12627;50.860;5.714;2022-11-27T06:43:31;5.68;;;2.50;;
24453;SDS011;12627;50.860;5.714;2022-11-27T06:45:59;5.20;;;2.65;;
24453;SDS011;12627;50.860;5.714;2022-11-27T06:48:28;5.03;;;3.00;;
24453;SDS011;12627;50.860;5.714;2022-11-27T06:50:57;5.55;;;2.70;;
24453;SDS011;12627;50.860;5.714;2022-11-27T06:53:26;3.60;;;2.63;;
24453;SDS011;12627;50.860;5.714;2022-11-27T06:55:54;6.03;;;2.80;;
24453;SDS011;12627;50.860;5.714;2022-11-27T06:58:22;4.40;;;2.13;;
24453;SDS011;12627;50.860;5.714;2022-11-27T07:00:53;12.95;;;3.88;;
24453;SDS011;12627;50.860;5.714;2022-11-27T07:03:23;3.75;;;2.60;;
24453;SDS011;12627;50.860;5.714;2022-11-27T07:05:50;7.15;;;2.63;;
24453;SDS011;12627;50.860;5.714;2022-11-27T07:08:17;9.68;;;2.67;;
24453;SDS011;12627;50.860;5.714;2022-11-27T07:10:44;7.53;;;2.97;;
24453;SDS011;12627;50.860;5.714;2022-11-27T07:13:13;5.07;;;2.10;;
24453;SDS011;12627;50.860;5.714;2022-11-27T07:15:40;8.02;;;2.75;;
24453;SDS011;12627;50.860;5.714;2022-11-27T07:18:08;5.70;;;2.53;;
24453;SDS011;12627;50.860;5.714;2022-11-27T07:20:35;2.57;;;2.30;;
24453;SDS011;12627;50.860;5.714;2022-11-27T07:23:02;4.78;;;2.67;;
24453;SDS011;12627;50.860;5.714;2022-11-27T07:25:29;4.40;;;2.15;;
24453;SDS011;12627;50.860;5.714;2022-11-27T07:27:57;5.60;;;2.58;;
24453;SDS011;12627;50.860;5.714;2022-11-27T07:30:25;6.13;;;2.25;;
24453;SDS011;12627;50.860;5.714;2022-11-27T07:32:52;4.13;;;2.50;;
24453;SDS011;12627;50.860;5.714;2022-11-27T07:35:20;5.43;;;2.08;;
24453;SDS011;12627;50.860;5.714;2022-11-27T07:37:47;5.18;;;2.97;;
24453;SDS011;12627;50.860;5.714;2022-11-27T07:40:14;7.85;;;2.78;;
24453;SDS011;12627;50.860;5.714;2022-11-27T07:42:42;5.18;;;2.08;;
24453;SDS011;12627;50.860;5.714;2022-11-27T07:45:10;4.32;;;2.30;;
24453;SDS011;12627;50.860;5.714;2022-11-27T07:47:39;5.18;;;2.33;;
24453;SDS011;12627;50.860;5.714;2022-11-27T07:50:06;4.90;;;2.42;;
24453;SDS011;12627;50.860;5.714;2022-11-27T07:52:34;4.32;;;2.95;;
24453;SDS011;12627;50.860;5.714;2022-11-27T07:55:02;4.20;;;2.50;;
24453;SDS011;12627;50.860;5.714;2022-11-27T07:57:30;4.75;;;2.50;;
24453;SDS011;12627;50.860;5.714;2022-11-27T07:59:57;7.00;;;2.92;;
24453;SDS011;12627;50.860;5.714;2022-11-27T08:02:25;8.02;;;3.17;;
24453;SDS011;12627;50.860;5.714;2022-11-27T08:04:53;6.05;;;3.20;;
24453;SDS011;12627;50.860;5.714;2022-11-27T08:07:25;5.63;;;3.03;;
24453;SDS011;12627;50.860;5.714;2022-11-27T08:09:52;5.63;;;2.97;;
24453;SDS011;12627;50.860;5.714;2022-11-27T08:12:21;7.30;;;3.60;;
24453;SDS011;12627;50.860;5.714;2022-11-27T08:14:49;5.53;;;3.45;;
24453;SDS011;12627;50.860;5.714;2022-11-27T08:17:16;7.47;;;3.17;;
24453;SDS011;12627;50.860;5.714;2022-11-27T08:19:43;6.03;;;3.08;;
24453;SDS011;12627;50.860;5.714;2022-11-27T08:22:12;6.90;;;3.70;;
24453;SDS011;12627;50.860;5.714;2022-11-27T08:24:40;6.25;;;3.65;;
24453;SDS011;12627;50.860;5.714;2022-11-27T08:27:07;6.72;;;3.30;;
24453;SDS011;12627;50.860;5.714;2022-11-27T08:29:35;7.50;;;3.75;;
24453;SDS011;12627;50.860;5.714;2022-11-27T08:32:03;4.72;;;3.25;;
24453;SDS011;12627;50.860;5.714;2022-11-27T08:34:31;6.80;;;3.53;;
24453;SDS011;12627;50.860;5.714;2022-11-27T08:36:58;6.55;;;4.00;;
24453;SDS011;12627;50.860;5.714;2022-11-27T08:39:27;6.07;;;3.67;;
24453;SDS011;12627;50.860;5.714;2022-11-27T08:41:54;7.20;;;4.03;;
24453;SDS011;12627;50.860;5.714;2022-11-27T08:44:21;6.75;;;3.70;;
24453;SDS011;12627;50.860;5.714;2022-11-27T08:46:48;6.03;;;3.60;;
24453;SDS011;12627;50.860;5.714;2022-11-27T08:49:16;7.80;;;3.83;;
24453;SDS011;12627;50.860;5.714;2022-11-27T08:51:43;6.72;;;4.18;;
24453;SDS011;12627;50.860;5.714;2022-11-27T08:54:10;6.53;;;4.05;;
24453;SDS011;12627;50.860;5.714;2022-11-27T08:56:39;7.93;;;4.35;;
24453;SDS011;12627;50.860;5.714;2022-11-27T08:59:06;6.20;;;3.70;;
24453;SDS011;12627;50.860;5.714;2022-11-27T09:01:33;6.60;;;3.80;;
24453;SDS011;12627;50.860;5.714;2022-11-27T09:04:00;7.25;;;3.88;;
24453;SDS011;12627;50.860;5.714;2022-11-27T09:06:28;4.85;;;3.63;;
24453;SDS011;12627;50.860;5.714;2022-11-27T09:08:58;7.22;;;4.25;;
24453;SDS011;12627;50.860;5.714;2022-11-27T09:11:30;6.18;;;3.90;;
24453;SDS011;12627;50.860;5.714;2022-11-27T09:14:00;4.97;;;3.58;;
24453;SDS011;12627;50.860;5.714;2022-11-27T09:16:28;6.50;;;3.67;;
24453;SDS011;12627;50.860;5.714;2022-11-27T09:18:56;5.20;;;4.18;;
24453;SDS011;12627;50.860;5.714;2022-11-27T09:21:24;7.60;;;3.90;;
24453;SDS011;12627;50.860;5.714;2022-11-27T09:23:52;8.98;;;3.80;;
24453;SDS011;12627;50.860;5.714;2022-11-27T09:26:20;7.18;;;4.03;;
24453;SDS011;12627;50.860;5.714;2022-11-27T09:28:49;7.45;;;3.97;;
24453;SDS011;12627;50.860;5.714;2022-11-27T09:31:19;5.43;;;3.80;;
24453;SDS011;12627;50.860;5.714;2022-11-27T09:33:47;6.10;;;3.15;;
24453;SDS011;12627;50.860;5.714;2022-11-27T09:36:15;6.28;;;4.03;;
24453;SDS011;12627;50.860;5.714;2022-11-27T09:38:44;6.65;;;3.78;;
24453;SDS011;12627;50.860;5.714;2022-11-27T09:41:16;5.60;;;3.67;;
24453;SDS011;12627;50.860;5.714;2022-11-27T09:47:04;8.18;;;3.25;;
24453;SDS011;12627;50.860;5.714;2022-11-27T09:49:40;4.63;;;3.35;;
24453;SDS011;12627;50.860;5.714;2022-11-27T09:52:11;5.63;;;3.05;;
24453;SDS011;12627;50.860;5.714;2022-11-27T09:54:46;5.20;;;3.65;;
24453;SDS011;12627;50.860;5.714;2022-11-27T09:57:20;5.32;;;3.33;;
24453;SDS011;12627;50.860;5.714;2022-11-27T09:59:52;3.75;;;2.85;;
24453;SDS011;12627;50.860;5.714;2022-11-27T10:02:23;5.32;;;3.63;;
24453;SDS011;12627;50.860;5.714;2022-11-27T10:04:53;7.20;;;3.90;;
24453;SDS011;12627;50.860;5.714;2022-11-27T10:07:24;5.32;;;3.78;;
24453;SDS011;12627;50.860;5.714;2022-11-27T10:10:11;6.43;;;3.50;;
24453;SDS011;12627;50.860;5.714;2022-11-27T10:12:55;5.72;;;3.85;;
24453;SDS011;12627;50.860;5.714;2022-11-27T10:15:30;5.80;;;2.75;;
24453;SDS011;12627;50.860;5.714;2022-11-27T10:18:07;5.45;;;3.03;;
24453;SDS011;12627;50.860;5.714;2022-11-27T10:20:40;6.40;;;3.50;;
24453;SDS011;12627;50.860;5.714;2022-11-27T10:23:13;8.05;;;3.40;;
24453;SDS011;12627;50.860;5.714;2022-11-27T10:25:48;4.85;;;3.40;;
24453;SDS011;12627;50.860;5.714;2022-11-27T10:28:20;4.28;;;3.10;;
24453;SDS011;12627;50.860;5.714;2022-11-27T10:30:55;5.90;;;3.45;;
24453;SDS011;12627;50.860;5.714;2022-11-27T10:33:33;7.05;;;3.47;;
24453;SDS011;12627;50.860;5.714;2022-11-27T10:36:07;7.07;;;4.00;;
24453;SDS011;12627;50.860;5.714;2022-11-27T10:38:40;5.50;;;3.83;;
24453;SDS011;12627;50.860;5.714;2022-11-27T10:41:09;6.28;;;3.38;;
24453;SDS011;12627;50.860;5.714;2022-11-27T10:43:42;7.95;;;3.70;;
24453;SDS011;12627;50.860;5.714;2022-11-27T10:46:13;10.70;;;5.75;;
24453;SDS011;12627;50.860;5.714;2022-11-27T10:48:46;5.22;;;3.63;;
24453;SDS011;12627;50.860;5.714;2022-11-27T10:51:14;7.13;;;3.75;;
24453;SDS011;12627;50.860;5.714;2022-11-27T10:53:44;4.90;;;3.53;;
24453;SDS011;12627;50.860;5.714;2022-11-27T10:56:22;7.82;;;4.10;;
24453;SDS011;12627;50.860;5.714;2022-11-27T10:59:05;7.05;;;4.53;;
24453;SDS011;12627;50.860;5.714;2022-11-27T11:01:40;6.53;;;3.53;;
24453;SDS011;12627;50.860;5.714;2022-11-27T11:04:11;4.30;;;3.22;;
24453;SDS011;12627;50.860;5.714;2022-11-27T11:06:41;5.70;;;3.40;;
24453;SDS011;12627;50.860;5.714;2022-11-27T11:09:12;7.15;;;3.40;;
24453;SDS011;12627;50.860;5.714;2022-11-27T11:11:41;4.15;;;3.03;;
24453;SDS011;12627;50.860;5.714;2022-11-27T23:54:18;4.13;;;2.47;;
24453;SDS011;12627;50.860;5.714;2022-11-27T23:56:49;4.38;;;2.55;;
24453;SDS011;12627;50.860;5.714;2022-11-27T23:59:17;2.97;;;2.67;;
